createdAt,value
2018-09-23T00:01:05.486Z,5.40
2018-09-23T00:03:34.767Z,4.83
2018-09-23T00:06:03.924Z,4.53
2018-09-23T00:08:32.997Z,4.77
2018-09-23T00:11:02.002Z,4.60
2018-09-23T00:13:31.070Z,4.63
2018-09-23T00:16:00.043Z,4.30
2018-09-23T00:18:29.055Z,4.70
2018-09-23T00:20:58.090Z,4.37
2018-09-23T00:23:27.134Z,4.90
2018-09-23T00:25:56.115Z,4.77
2018-09-23T00:28:25.151Z,4.60
2018-09-23T00:30:54.120Z,4.77
2018-09-23T00:33:23.171Z,5.17
2018-09-23T00:35:52.197Z,5.00
2018-09-23T00:38:21.193Z,5.00
2018-09-23T00:40:50.274Z,5.10
2018-09-23T00:43:19.487Z,5.03
2018-09-23T00:45:48.475Z,4.93
2018-09-23T00:48:17.529Z,5.10
2018-09-23T00:50:46.515Z,4.93
2018-09-23T00:53:15.606Z,4.93
2018-09-23T00:55:44.665Z,5.00
2018-09-23T00:58:13.666Z,4.80
2018-09-23T01:00:42.713Z,5.20
2018-09-23T01:03:11.803Z,4.90
2018-09-23T01:05:40.910Z,4.83
2018-09-23T01:08:10.023Z,5.00
2018-09-23T01:10:39.135Z,4.80
2018-09-23T01:13:08.854Z,4.93
2018-09-23T01:15:38.017Z,4.70
2018-09-23T01:18:07.118Z,5.00
2018-09-23T01:20:37.015Z,4.70
2018-09-23T01:23:06.411Z,5.10
2018-09-23T01:25:35.538Z,5.27
2018-09-23T01:28:04.776Z,5.17
2018-09-23T01:30:33.853Z,5.03
2018-09-23T01:33:03.138Z,5.40
2018-09-23T01:35:32.074Z,5.27
2018-09-23T01:38:01.190Z,5.13
2018-09-23T01:40:30.357Z,5.40
2018-09-23T01:42:59.573Z,5.00
2018-09-23T01:45:28.653Z,4.90
2018-09-23T01:47:57.708Z,5.07
2018-09-23T01:50:26.752Z,4.80
2018-09-23T01:52:55.844Z,5.27
2018-09-23T01:55:24.942Z,5.30
2018-09-23T01:57:54.019Z,5.03
2018-09-23T02:00:23.057Z,5.13
2018-09-23T02:02:52.153Z,5.40
2018-09-23T02:05:21.149Z,5.30
2018-09-23T02:07:50.314Z,5.40
2018-09-23T02:10:19.306Z,5.20
2018-09-23T02:12:48.441Z,5.10
2018-09-23T02:15:17.497Z,5.13
2018-09-23T02:17:46.626Z,5.27
2018-09-23T02:22:45.722Z,5.10
2018-09-23T02:25:14.721Z,5.30
2018-09-23T02:27:43.691Z,4.90
2018-09-23T02:30:12.669Z,5.33
2018-09-23T02:32:41.747Z,5.20
2018-09-23T02:35:10.722Z,5.00
2018-09-23T02:37:39.743Z,5.50
2018-09-23T02:40:08.876Z,5.07
2018-09-23T02:42:37.973Z,5.53
2018-09-23T02:45:07.065Z,5.30
2018-09-23T02:47:36.358Z,5.53
2018-09-23T02:50:05.479Z,5.30
2018-09-23T02:52:34.444Z,4.87
2018-09-23T02:55:03.504Z,5.30
2018-09-23T02:57:32.592Z,5.30
2018-09-23T03:00:01.639Z,5.27
2018-09-23T03:02:30.660Z,5.00
2018-09-23T03:04:59.690Z,5.30
2018-09-23T03:07:28.705Z,5.20
2018-09-23T03:09:57.796Z,5.60
2018-09-23T03:12:26.741Z,5.30
2018-09-23T03:14:56.011Z,5.63
2018-09-23T03:17:25.055Z,5.33
2018-09-23T03:19:54.150Z,5.33
2018-09-23T03:22:23.146Z,5.50
2018-09-23T03:24:52.174Z,5.77
2018-09-23T03:27:21.270Z,5.53
2018-09-23T03:29:50.234Z,5.47
2018-09-23T03:32:19.221Z,5.70
2018-09-23T03:34:48.285Z,5.63
2018-09-23T03:37:17.337Z,5.70
2018-09-23T03:39:46.326Z,5.30
2018-09-23T03:42:15.610Z,5.50
2018-09-23T03:44:44.850Z,5.57
2018-09-23T03:47:13.815Z,5.93
2018-09-23T03:49:42.809Z,5.70
2018-09-23T03:52:11.826Z,5.40
2018-09-23T03:54:40.786Z,6.23
2018-09-23T03:57:09.825Z,5.63
2018-09-23T03:59:38.810Z,5.47
2018-09-23T04:02:07.792Z,6.03
2018-09-23T04:04:36.932Z,5.80
2018-09-23T04:07:05.938Z,5.90
2018-09-23T04:09:35.015Z,5.60
2018-09-23T04:12:04.126Z,5.40
2018-09-23T04:14:33.056Z,5.50
2018-09-23T04:17:02.149Z,5.37
2018-09-23T04:19:31.275Z,6.07
2018-09-23T04:22:00.342Z,5.73
2018-09-23T04:24:29.404Z,5.50
2018-09-23T04:26:58.478Z,5.53
2018-09-23T04:29:27.542Z,5.50
2018-09-23T04:31:57.025Z,5.67
2018-09-23T04:34:26.216Z,5.87
2018-09-23T04:36:55.402Z,5.80
2018-09-23T04:39:24.396Z,6.00
2018-09-23T04:41:53.564Z,5.70
2018-09-23T04:44:22.523Z,5.53
2018-09-23T04:46:51.486Z,6.07
2018-09-23T04:49:20.568Z,5.97
2018-09-23T04:51:49.497Z,5.80
2018-09-23T04:54:18.526Z,5.90
2018-09-23T04:56:47.535Z,6.37
2018-09-23T04:59:16.535Z,6.20
2018-09-23T05:01:45.570Z,5.73
2018-09-23T05:04:14.562Z,5.73
2018-09-23T05:06:44.651Z,5.87
2018-09-23T05:09:13.630Z,5.90
2018-09-23T05:11:43.743Z,6.37
2018-09-23T05:14:12.707Z,6.10
2018-09-23T05:16:41.823Z,6.30
2018-09-23T05:19:11.142Z,5.90
2018-09-23T05:21:40.389Z,6.07
2018-09-23T05:24:10.054Z,6.20
2018-09-23T05:26:39.145Z,6.13
2018-09-23T05:29:08.140Z,5.80
2018-09-23T05:31:37.116Z,6.17
2018-09-23T05:34:06.603Z,6.87
2018-09-23T05:36:35.859Z,6.33
2018-09-23T05:39:07.037Z,6.20
2018-09-23T05:41:36.232Z,6.37
2018-09-23T05:44:05.400Z,6.10
2018-09-23T05:46:34.370Z,6.67
2018-09-23T05:49:04.013Z,6.10
2018-09-23T05:51:33.910Z,5.77
2018-09-23T05:54:02.995Z,6.00
2018-09-23T05:56:32.435Z,6.40
2018-09-23T05:59:01.463Z,6.13
2018-09-23T06:01:30.501Z,6.47
2018-09-23T06:03:59.549Z,6.10
2018-09-23T06:06:28.818Z,6.33
2018-09-23T06:09:00.208Z,6.70
2018-09-23T06:11:29.185Z,6.90
2018-09-23T06:13:58.195Z,6.40
2018-09-23T06:16:27.214Z,7.30
2018-09-23T06:18:56.299Z,6.47
2018-09-23T06:21:25.275Z,6.73
2018-09-23T06:23:54.302Z,7.07
2018-09-23T06:26:23.298Z,7.60
2018-09-23T06:28:52.358Z,6.57
2018-09-23T06:31:21.354Z,6.73
2018-09-23T06:33:50.651Z,6.70
2018-09-23T06:36:19.608Z,6.50
2018-09-23T06:38:48.921Z,6.80
2018-09-23T06:41:18.051Z,6.50
2018-09-23T06:43:47.022Z,6.90
2018-09-23T06:46:16.062Z,6.20
2018-09-23T06:48:45.064Z,7.40
2018-09-23T06:51:14.086Z,6.97
2018-09-23T06:53:43.969Z,7.00
2018-09-23T06:56:12.923Z,6.73
2018-09-23T06:58:42.061Z,7.47
2018-09-23T07:01:11.121Z,7.37
2018-09-23T07:03:40.232Z,6.63
2018-09-23T07:06:09.287Z,7.30
2018-09-23T07:08:38.384Z,6.63
2018-09-23T07:11:07.659Z,6.33
2018-09-23T07:13:36.672Z,7.07
2018-09-23T07:16:05.737Z,6.60
2018-09-23T07:18:35.247Z,6.80
2018-09-23T07:21:04.266Z,6.50
2018-09-23T07:23:33.976Z,6.33
2018-09-23T07:26:04.978Z,6.17
2018-09-23T07:28:35.874Z,6.47
2018-09-23T07:31:04.991Z,6.63
2018-09-23T07:33:35.816Z,6.20
2018-09-23T07:36:05.072Z,6.00
2018-09-23T07:38:34.063Z,5.93
2018-09-23T07:41:03.210Z,5.80
2018-09-23T07:43:32.300Z,6.70
2018-09-23T07:46:01.434Z,6.30
2018-09-23T07:48:30.910Z,6.43
2018-09-23T07:51:00.057Z,5.77
2018-09-23T07:53:29.226Z,5.80
2018-09-23T07:55:58.317Z,6.10
2018-09-23T08:00:48.470Z,6.10
2018-09-23T08:03:17.514Z,5.77
2018-09-23T08:05:46.517Z,6.27
2018-09-23T08:08:15.513Z,6.00
2018-09-23T08:10:44.534Z,5.73
2018-09-23T08:13:13.787Z,5.80
2018-09-23T08:15:42.678Z,5.20
2018-09-23T08:18:11.914Z,5.73
2018-09-23T08:20:41.241Z,5.17
2018-09-23T08:23:10.229Z,5.73
2018-09-23T08:25:39.448Z,5.73
2018-09-23T08:28:08.394Z,5.73
2018-09-23T08:33:16.542Z,5.40
2018-09-23T08:35:46.145Z,5.30
2018-09-23T08:38:16.359Z,5.70
2018-09-23T08:40:45.369Z,5.50
2018-09-23T08:43:14.812Z,4.83
2018-09-23T08:45:44.004Z,5.13
2018-09-23T08:48:13.007Z,5.40
2018-09-23T08:50:41.947Z,5.40
2018-09-23T08:53:11.021Z,5.40
2018-09-23T08:55:40.008Z,5.10
2018-09-23T08:58:09.045Z,4.93
2018-09-23T09:00:38.011Z,5.70
2018-09-23T09:03:07.178Z,4.60
2018-09-23T09:05:36.812Z,4.90
2018-09-23T09:08:06.025Z,5.03
2018-09-23T09:10:35.066Z,4.57
2018-09-23T09:13:04.367Z,4.53
2018-09-23T09:15:33.354Z,4.83
2018-09-23T09:18:02.561Z,4.80
2018-09-23T09:20:31.546Z,4.63
2018-09-23T09:23:00.601Z,4.40
2018-09-23T09:25:30.910Z,4.30
2018-09-23T09:27:59.878Z,4.30
2018-09-23T09:30:28.926Z,4.27
2018-09-23T09:32:57.989Z,4.73
2018-09-23T09:35:27.074Z,4.40
2018-09-23T09:37:56.130Z,4.50
2018-09-23T09:40:25.273Z,4.43
2018-09-23T09:42:55.401Z,3.97
2018-09-23T09:45:24.499Z,4.10
2018-09-23T09:47:53.502Z,4.23
2018-09-23T09:50:22.794Z,4.17
2018-09-23T09:52:52.141Z,4.20
2018-09-23T09:55:21.198Z,4.50
2018-09-23T09:57:50.099Z,4.20
2018-09-23T10:00:24.522Z,4.23
2018-09-23T10:02:53.503Z,4.17
2018-09-23T10:05:23.322Z,4.40
2018-09-23T10:07:52.402Z,4.60
2018-09-23T10:10:21.370Z,4.60
2018-09-23T10:12:50.390Z,4.37
2018-09-23T10:15:19.428Z,4.80
2018-09-23T10:17:48.598Z,4.50
2018-09-23T10:20:17.663Z,4.70
2018-09-23T10:22:47.931Z,4.80
2018-09-23T10:25:16.986Z,4.90
2018-09-23T10:27:46.022Z,4.90
2018-09-23T10:30:15.186Z,4.30
2018-09-23T10:32:45.427Z,4.50
2018-09-23T10:35:14.847Z,4.53
2018-09-23T10:37:43.945Z,4.33
2018-09-23T10:40:13.193Z,4.70
2018-09-23T10:42:42.271Z,4.70
2018-09-23T10:45:11.285Z,4.80
2018-09-23T10:47:40.418Z,4.53
2018-09-23T10:50:09.557Z,4.50
2018-09-23T10:52:38.805Z,4.50
2018-09-23T10:55:07.831Z,3.80
2018-09-23T10:57:36.884Z,4.40
2018-09-23T11:00:05.858Z,4.40
2018-09-23T11:02:35.722Z,4.47
2018-09-23T11:05:04.811Z,4.20
2018-09-23T11:07:33.943Z,4.60
2018-09-23T11:10:02.911Z,4.47
2018-09-23T11:12:31.878Z,4.70
2018-09-23T11:15:03.055Z,4.40
2018-09-23T11:17:32.290Z,4.57
2018-09-23T11:20:01.326Z,4.57
2018-09-23T11:22:30.293Z,4.30
2018-09-23T11:24:59.594Z,4.63
2018-09-23T11:27:28.693Z,4.57
2018-09-23T11:29:58.341Z,4.80
2018-09-23T11:32:27.434Z,4.70
2018-09-23T11:34:56.458Z,4.33
2018-09-23T11:37:26.140Z,4.30
2018-09-23T11:39:55.220Z,4.53
2018-09-23T11:42:24.172Z,5.20
2018-09-23T11:44:53.238Z,4.70
2018-09-23T11:47:23.465Z,5.50
2018-09-23T11:49:52.585Z,5.40
2018-09-23T11:52:23.672Z,5.17
2018-09-23T11:54:52.767Z,5.30
2018-09-23T11:57:21.832Z,6.73
2018-09-23T11:59:51.040Z,6.50
2018-09-23T12:02:20.498Z,5.80
2018-09-23T12:04:49.454Z,6.63
2018-09-23T12:07:18.838Z,7.20
2018-09-23T12:09:48.763Z,6.57
2018-09-23T12:12:18.043Z,6.33
2018-09-23T12:14:47.123Z,5.17
2018-09-23T12:17:16.999Z,5.43
2018-09-23T12:19:46.041Z,5.70
2018-09-23T12:22:15.749Z,4.83
2018-09-23T12:24:45.257Z,5.30
2018-09-23T12:27:14.278Z,5.20
2018-09-23T12:29:43.449Z,4.77
2018-09-23T12:32:12.479Z,4.60
2018-09-23T12:34:41.543Z,4.47
2018-09-23T12:37:10.557Z,4.90
2018-09-23T12:39:39.561Z,5.00
2018-09-23T12:42:08.592Z,5.10
2018-09-23T12:44:37.591Z,4.80
2018-09-23T12:47:06.637Z,4.20
2018-09-23T12:49:35.634Z,4.40
2018-09-23T12:52:04.698Z,4.30
2018-09-23T12:54:33.699Z,4.00
2018-09-23T12:57:02.718Z,4.20
2018-09-23T12:59:31.718Z,4.70
2018-09-23T13:02:00.708Z,3.73
2018-09-23T13:04:29.726Z,4.23
2018-09-23T13:06:58.708Z,4.00
2018-09-23T13:09:27.782Z,3.30
2018-09-23T13:11:56.875Z,3.97
2018-09-23T13:14:25.918Z,3.90
2018-09-23T13:16:54.959Z,4.40
2018-09-23T13:19:24.125Z,3.20
2018-09-23T13:21:53.103Z,3.57
2018-09-23T13:24:22.126Z,4.00
2018-09-23T13:26:51.350Z,3.40
2018-09-23T13:29:20.362Z,3.47
2018-09-23T13:31:49.387Z,3.63
2018-09-23T13:34:18.552Z,3.60
2018-09-23T13:36:47.694Z,3.10
2018-09-23T13:39:16.698Z,3.30
2018-09-23T13:41:45.667Z,3.00
2018-09-23T13:44:14.793Z,3.30
2018-09-23T13:46:43.855Z,3.10
2018-09-23T13:49:12.951Z,2.80
2018-09-23T13:51:41.959Z,3.00
2018-09-23T13:54:11.118Z,3.30
2018-09-23T13:56:40.266Z,3.00
2018-09-23T13:59:09.329Z,3.20
2018-09-23T14:01:38.342Z,3.00
2018-09-23T14:04:07.357Z,3.07
2018-09-23T14:06:36.322Z,2.80
2018-09-23T14:09:06.165Z,3.00
2018-09-23T14:11:35.339Z,3.10
2018-09-23T14:14:04.354Z,3.30
2018-09-23T14:16:33.365Z,3.60
2018-09-23T14:19:02.359Z,3.10
2018-09-23T14:21:31.403Z,3.20
2018-09-23T14:24:00.382Z,3.27
2018-09-23T14:26:29.383Z,2.90
2018-09-23T14:28:58.474Z,2.90
2018-09-23T14:31:27.527Z,3.20
2018-09-23T14:33:56.507Z,2.80
2018-09-23T14:36:25.620Z,2.57
2018-09-23T14:38:54.779Z,2.63
2018-09-23T14:41:23.738Z,2.30
2018-09-23T14:43:52.763Z,2.47
2018-09-23T14:46:21.814Z,2.30
2018-09-23T14:48:50.827Z,2.50
2018-09-23T14:51:19.846Z,2.30
2018-09-23T14:53:48.898Z,2.10
2018-09-23T14:56:18.039Z,2.30
2018-09-23T14:58:47.609Z,2.50
2018-09-23T15:01:16.670Z,2.33
2018-09-23T15:03:45.991Z,2.20
2018-09-23T15:06:21.734Z,2.30
2018-09-23T15:08:50.755Z,2.13
2018-09-23T15:11:19.883Z,2.47
2018-09-23T15:13:49.147Z,2.30
2018-09-23T15:16:18.902Z,2.10
2018-09-23T15:18:47.865Z,2.20
2018-09-23T15:21:17.086Z,2.07
2018-09-23T15:23:46.192Z,2.10
2018-09-23T15:26:15.293Z,2.23
2018-09-23T15:28:44.301Z,2.40
2018-09-23T15:31:13.296Z,2.20
2018-09-23T15:33:42.361Z,2.30
2018-09-23T15:36:11.350Z,2.07
2018-09-23T15:38:40.318Z,2.03
2018-09-23T15:41:09.525Z,2.30
2018-09-23T15:43:38.774Z,2.10
2018-09-23T15:46:07.904Z,2.20
2018-09-23T15:48:36.973Z,2.10
2018-09-23T15:51:06.447Z,2.00
2018-09-23T15:53:35.870Z,2.10
2018-09-23T15:56:11.598Z,1.90
2018-09-23T15:58:41.036Z,2.37
2018-09-23T16:01:10.772Z,2.23
2018-09-23T16:03:40.021Z,2.30
2018-09-23T16:06:09.438Z,2.27
2018-09-23T16:08:39.017Z,2.10
2018-09-23T16:11:08.131Z,2.40
2018-09-23T16:13:37.150Z,2.10
2018-09-23T16:16:06.568Z,2.33
2018-09-23T16:18:35.732Z,2.67
2018-09-23T16:21:04.950Z,2.60
2018-09-23T16:23:33.953Z,2.77
2018-09-23T16:26:03.136Z,4.07
2018-09-23T16:28:32.591Z,2.67
2018-09-23T16:31:01.573Z,2.40
2018-09-23T16:33:33.977Z,2.73
2018-09-23T16:36:02.998Z,3.17
2018-09-23T16:38:32.094Z,3.20
2018-09-23T16:41:01.136Z,3.47
2018-09-23T16:43:30.186Z,3.30
2018-09-23T16:45:59.229Z,3.50
2018-09-23T16:48:31.215Z,3.40
2018-09-23T16:51:00.206Z,3.30
2018-09-23T16:53:29.327Z,3.50
2018-09-23T16:55:58.558Z,3.60
2018-09-23T16:58:27.625Z,3.37
2018-09-23T17:00:56.725Z,3.50
2018-09-23T17:03:25.722Z,3.50
2018-09-23T17:05:54.794Z,3.30
2018-09-23T17:08:23.775Z,3.40
2018-09-23T17:10:54.062Z,3.40
2018-09-23T17:13:23.280Z,3.27
2018-09-23T17:15:52.317Z,3.40
2018-09-23T17:18:21.443Z,4.23
2018-09-23T17:20:50.390Z,3.50
2018-09-23T17:23:19.451Z,3.77
2018-09-23T17:25:48.436Z,3.53
2018-09-23T17:28:17.900Z,3.40
2018-09-23T17:30:46.993Z,3.50
2018-09-23T17:33:16.172Z,3.37
2018-09-23T17:35:45.187Z,3.53
2018-09-23T17:38:14.250Z,3.30
2018-09-23T17:40:43.332Z,3.20
2018-09-23T17:43:12.708Z,3.70
2018-09-23T17:45:41.701Z,3.70
2018-09-23T17:48:10.718Z,3.50
2018-09-23T17:50:39.734Z,3.40
2018-09-23T17:53:08.794Z,3.37
2018-09-23T17:55:37.771Z,3.77
2018-09-23T17:58:08.395Z,3.60
2018-09-23T18:00:35.948Z,3.60
2018-09-23T18:03:05.096Z,3.70
2018-09-23T18:05:34.164Z,3.60
2018-09-23T18:08:03.838Z,3.70
2018-09-23T18:10:32.938Z,3.50
2018-09-23T18:13:02.018Z,3.40
2018-09-23T18:15:31.151Z,3.40
2018-09-23T18:18:00.449Z,3.50
2018-09-23T18:20:29.457Z,3.80
2018-09-23T18:22:58.506Z,3.50
2018-09-23T18:25:27.548Z,3.57
2018-09-23T18:27:56.605Z,3.40
2018-09-23T18:30:25.617Z,3.53
2018-09-23T18:32:54.623Z,3.60
2018-09-23T18:35:23.707Z,3.50
2018-09-23T18:37:52.802Z,3.57
2018-09-23T18:40:21.942Z,3.40
2018-09-23T18:42:50.925Z,3.80
2018-09-23T18:45:19.916Z,3.30
2018-09-23T18:47:48.937Z,3.30
2018-09-23T18:50:18.168Z,3.27
2018-09-23T18:52:49.935Z,3.13
2018-09-23T18:55:24.487Z,3.40
2018-09-23T18:57:53.632Z,3.20
2018-09-23T19:00:22.693Z,3.40
2018-09-23T19:02:52.788Z,3.33
2018-09-23T19:07:57.119Z,3.37
2018-09-23T19:10:26.317Z,3.80
2018-09-23T19:13:00.829Z,3.57
2018-09-23T19:15:31.947Z,3.60
2018-09-23T19:18:00.941Z,3.63
2018-09-23T19:20:30.490Z,3.70
2018-09-23T19:23:05.492Z,4.00
2018-09-23T19:25:34.871Z,3.57
2018-09-23T19:28:03.870Z,3.80
2018-09-23T19:30:33.341Z,4.20
2018-09-23T19:33:02.331Z,4.20
2018-09-23T19:35:32.183Z,4.00
2018-09-23T19:38:01.182Z,4.00
2018-09-23T19:40:30.499Z,4.30
2018-09-23T19:42:59.807Z,4.30
2018-09-23T19:45:29.829Z,4.07
2018-09-23T19:47:59.025Z,4.13
2018-09-23T19:50:29.349Z,3.57
2018-09-23T19:52:59.954Z,3.83
2018-09-23T19:55:29.803Z,4.03
2018-09-23T19:57:59.895Z,4.23
2018-09-23T20:00:29.042Z,4.30
2018-09-23T20:02:58.437Z,4.10
2018-09-23T20:05:27.479Z,4.07
2018-09-23T20:07:56.569Z,4.27
2018-09-23T20:10:25.899Z,4.07
2018-09-23T20:12:55.144Z,4.40
2018-09-23T20:15:24.266Z,4.43
2018-09-23T20:17:53.506Z,4.40
2018-09-23T20:20:22.674Z,4.33
2018-09-23T20:22:53.632Z,4.50
2018-09-23T20:25:23.843Z,4.40
2018-09-23T20:27:52.974Z,4.60
2018-09-23T20:30:22.158Z,4.60
2018-09-23T20:32:51.191Z,4.50
2018-09-23T20:35:21.125Z,4.70
2018-09-23T20:37:50.218Z,4.50
2018-09-23T20:40:19.725Z,4.50
2018-09-23T20:42:48.898Z,4.43
2018-09-23T20:45:18.060Z,4.97
2018-09-23T20:47:47.114Z,4.97
2018-09-23T20:50:16.569Z,5.07
2018-09-23T20:52:46.255Z,4.90
2018-09-23T20:55:16.610Z,4.63
2018-09-23T20:57:45.722Z,4.87
2018-09-23T21:00:14.951Z,5.00
2018-09-23T21:02:44.708Z,4.63
2018-09-23T21:05:14.845Z,5.17
2018-09-23T21:07:44.510Z,4.20
2018-09-23T21:10:13.626Z,4.60
2018-09-23T21:12:42.826Z,4.80
2018-09-23T21:15:12.035Z,5.00
2018-09-23T21:17:41.173Z,4.63
2018-09-23T21:20:10.306Z,5.10
2018-09-23T21:22:39.348Z,5.17
2018-09-23T21:25:08.411Z,5.00
2018-09-23T21:27:37.768Z,5.00
2018-09-23T21:30:06.805Z,4.93
2018-09-23T21:32:35.792Z,4.93
2018-09-23T21:35:04.809Z,4.73
2018-09-23T21:37:33.766Z,4.90
2018-09-23T21:40:02.962Z,5.00
2018-09-23T21:42:32.054Z,5.20
2018-09-23T21:45:01.136Z,5.00
2018-09-23T21:47:30.445Z,5.10
2018-09-23T21:49:59.522Z,5.30
2018-09-23T21:52:29.072Z,4.90
2018-09-23T21:54:58.033Z,4.90
2018-09-23T21:57:27.459Z,5.20
2018-09-23T21:59:57.143Z,5.20
2018-09-23T22:02:26.301Z,5.10
2018-09-23T22:04:55.597Z,5.10
2018-09-23T22:07:24.694Z,5.20
2018-09-23T22:09:53.802Z,5.10
2018-09-23T22:12:23.118Z,5.20
2018-09-23T22:14:52.098Z,4.90
2018-09-23T22:17:21.135Z,4.90
2018-09-23T22:19:50.116Z,5.20
2018-09-23T22:22:19.070Z,5.10
2018-09-23T22:24:48.102Z,5.03
2018-09-23T22:27:17.078Z,5.20
2018-09-23T22:29:46.067Z,5.10
2018-09-23T22:32:15.112Z,5.03
2018-09-23T22:34:44.238Z,5.13
2018-09-23T22:37:13.298Z,5.00
2018-09-23T22:39:42.263Z,5.20
2018-09-23T22:42:11.386Z,5.13
2018-09-23T22:44:40.365Z,4.90
2018-09-23T22:47:09.397Z,5.30
2018-09-23T22:49:38.513Z,5.30
2018-09-23T22:52:07.748Z,4.93
2018-09-23T22:54:36.832Z,5.20
2018-09-23T22:57:05.979Z,5.30
2018-09-23T22:59:34.993Z,5.30
2018-09-23T23:02:04.063Z,5.10
2018-09-23T23:04:33.114Z,5.40
2018-09-23T23:07:02.139Z,5.03
2018-09-23T23:09:31.119Z,5.47
2018-09-23T23:12:00.589Z,5.30
2018-09-23T23:14:29.599Z,5.40
2018-09-23T23:16:58.631Z,5.50
2018-09-23T23:19:27.617Z,5.13
2018-09-23T23:21:56.625Z,5.33
2018-09-23T23:24:25.650Z,5.60
2018-09-23T23:26:54.675Z,5.63
2018-09-23T23:29:23.760Z,5.17
2018-09-23T23:31:52.738Z,5.10
2018-09-23T23:34:21.783Z,5.60
2018-09-23T23:36:50.795Z,5.47
2018-09-23T23:39:19.802Z,5.67
2018-09-23T23:41:48.927Z,5.43
2018-09-23T23:44:17.935Z,5.73
2018-09-23T23:46:46.945Z,5.50
2018-09-23T23:49:16.043Z,5.43
2018-09-23T23:51:45.017Z,5.40
2018-09-23T23:54:14.077Z,5.60
2018-09-23T23:56:43.062Z,5.33
2018-09-23T23:59:12.123Z,5.60
